Time;durP1;ratioP1;P1;durP2;ratioP2;P2;SDS_P1;SDS_P2;PMS_P1;PMS_P2;Temp;Humidity;BMP_temperature;BMP_pressure;BME280_temperature;BME280_humidity;BME280_pressure;Samples;Min_cycle;Max_cycle;Signal;HPM_P1;HPM_P2
2022/07/12 00:02:10;;;;;;;;;;;;;;;14.63;100.00;99853.77;1739474;82;20673;-81
2022/07/12 00:05:16;;;;;;;;;;;;;;;14.63;100.00;99855.67;1741201;82;20212;-81
2022/07/12 00:08:21;;;;;;;;;;;;;;;14.62;100.00;99860.34;1740171;82;20212;-81
2022/07/12 00:11:26;;;;;;;;;;;;;;;14.59;100.00;99858.56;1752102;81;20223;-80
2022/07/12 00:14:31;;;;;;;;;;;;;;;14.57;100.00;99862.35;1760505;81;20246;-81
2022/07/12 00:17:30;;;;;;;;;;;;;;;14.57;100.00;99858.76;1725324;83;21223;-81
2022/07/12 00:20:34;;;;;;;;;;;;;;;14.54;100.00;99860.05;1726370;83;20400;-81
2022/07/12 00:23:39;;;;;;;;;;;;;;;14.51;100.00;99860.45;1726750;83;20217;-81
2022/07/12 00:26:44;;;;;;;;;;;;;;;14.46;100.00;99858.00;1731987;82;20715;-79
2022/07/12 00:29:50;;;;;;;;;;;;;;;14.44;100.00;99861.48;1770940;81;20225;-81
2022/07/12 00:32:55;;;;;;;;;;;;;;;14.41;100.00;99868.27;1770050;81;20447;-81
2022/07/12 00:35:59;;;;;;;;;;;;;;;14.34;100.00;99866.03;1770666;81;20233;-81
2022/07/12 00:39:03;;;;;;;;;;;;;;;14.28;100.00;99869.64;1769725;81;20209;-81
2022/07/12 00:42:07;;;;;;;;;;;;;;;14.22;100.00;99871.87;1771234;81;20379;-80
2022/07/12 00:45:13;;;;;;;;;;;;;;;14.22;100.00;99878.74;1771209;81;20225;-81
2022/07/12 04:30:50;;;;;;;;;;;;;;;20.48;72.50;100083.50;1701033;83;20279;-82
2022/07/12 04:34:01;;;;;;;;;;;;;;;20.55;72.20;100078.63;1679335;85;20240;-81
2022/07/12 04:37:05;;;;;;;;;;;;;;;20.63;71.61;100079.62;1672532;86;20214;-81
2022/07/12 04:40:11;;;;;;;;;;;;;;;20.80;71.57;100085.80;1670973;85;20231;-81
2022/07/12 04:43:16;;;;;;;;;;;;;;;20.93;71.99;100079.35;1671166;86;20230;-81
2022/07/12 04:46:20;;;;;;;;;;;;;;;20.97;71.60;100088.05;1672576;86;20214;-81
2022/07/12 04:49:24;;;;;;;;;;;;;;;21.03;71.76;100091.23;1671398;86;20242;-81
2022/07/12 04:52:27;;;;;;;;;;;;;;;20.97;71.17;100095.00;1671336;86;20514;-81
2022/07/12 04:55:31;;;;;;;;;;;;;;;20.92;71.83;100093.52;1670952;86;20226;-81
2022/07/12 04:58:35;;;;;;;;;;;;;;;21.05;71.69;100095.15;1682635;84;20633;-82
2022/07/12 05:01:40;;;;;;;;;;;;;;;21.25;72.29;100100.22;1695361;84;20212;-81
2022/07/12 05:04:44;;;;;;;;;;;;;;;21.30;72.48;100093.35;1696974;84;20200;-81
2022/07/12 05:07:50;;;;;;;;;;;;;;;21.30;72.82;100098.91;1697052;84;20228;-81
2022/07/12 05:10:56;;;;;;;;;;;;;;;21.27;71.49;100103.61;1698120;84;20306;-81
2022/07/12 05:14:00;;;;;;;;;;;;;;;21.28;70.54;100102.51;1698988;83;20224;-81
2022/07/12 05:17:05;;;;;;;;;;;;;;;21.36;71.15;100103.49;1679023;83;20230;-81
2022/07/12 05:20:11;;;;;;;;;;;;;;;21.38;71.16;100105.49;1709360;82;20219;-81
2022/07/12 05:23:15;;;;;;;;;;;;;;;21.44;70.57;100105.31;1702373;82;20192;-80
2022/07/12 05:26:13;;;;;;;;;;;;;;;21.62;70.12;100108.39;1695092;82;20236;-81
2022/07/12 05:29:05;;;;;;;;;;;;;;;21.78;70.72;100105.84;1699415;83;20238;-82
2022/07/12 05:32:10;;;;;;;;;;;;;;;21.83;70.70;100112.36;1709832;82;20223;-81
2022/07/12 05:35:16;;;;;;;;;;;;;;;21.90;70.73;100106.59;1747336;80;20373;-81
2022/07/12 05:38:19;;;;;;;;;;;;;;;21.99;68.71;100106.45;1756238;81;20254;-81
2022/07/12 05:41:24;;;;;;;;;;;;;;;22.03;68.84;100103.45;1757131;80;20696;-81
2022/07/12 05:44:31;;;;;;;;;;;;;;;22.13;68.86;100097.21;1743503;82;20656;-81
2022/07/12 05:47:35;;;;;;;;;;;;;;;22.19;67.52;100095.62;1717044;83;20219;-81
2022/07/12 05:50:39;;;;;;;;;;;;;;;22.31;66.54;100105.26;1716222;82;20226;-80
2022/07/12 05:53:44;;;;;;;;;;;;;;;22.41;67.28;100097.03;1723325;81;20654;-80
2022/07/12 05:56:49;;;;;;;;;;;;;;;22.49;64.96;100095.74;1738817;82;20248;-81
2022/07/12 05:59:53;;;;;;;;;;;;;;;22.54;65.12;100097.75;1753157;81;20232;-81
2022/07/12 06:02:58;;;;;;;;;;;;;;;22.69;65.06;100107.12;1733426;81;20626;-81
2022/07/12 06:06:03;;;;;;;;;;;;;;;22.79;65.13;100098.58;1681482;85;20214;-81
2022/07/12 06:09:08;;;;;;;;;;;;;;;22.92;64.54;100099.59;1715922;83;20628;-81
2022/07/12 06:12:14;;;;;;;;;;;;;;;23.03;63.11;100107.52;1711841;84;20421;-81
2022/07/12 06:15:19;;;;;;;;;;;;;;;23.12;62.53;100103.98;1751482;80;20239;-81
2022/07/12 06:18:24;;;;;;;;;;;;;;;23.16;61.50;100101.52;1745152;80;20266;-81
2022/07/12 06:21:30;;;;;;;;;;;;;;;23.19;61.62;100108.77;1753402;80;20235;-81
2022/07/12 06:24:35;;;;;;;;;;;;;;;23.23;60.77;100112.44;1756785;80;21068;-81
2022/07/12 06:27:34;;;;;;;;;;;;;;;23.27;58.74;100108.02;1748727;80;20215;-81
2022/07/12 06:30:27;;;;;;;;;;;;;;;23.36;59.38;100116.20;1753045;81;20739;-81
2022/07/12 06:33:34;;;;;;;;;;;;;;;23.39;58.82;100113.73;1745184;81;20612;-81
2022/07/12 06:36:39;;;;;;;;;;;;;;;23.49;59.80;100111.58;1756113;79;20235;-81
2022/07/12 06:39:44;;;;;;;;;;;;;;;23.50;58.36;100111.02;1749001;79;20635;-81
2022/07/12 06:42:48;;;;;;;;;;;;;;;23.56;59.90;100116.92;1749635;81;20246;-81
2022/07/12 06:45:52;;;;;;;;;;;;;;;23.61;58.37;100114.16;1748399;81;20234;-81
2022/07/12 06:48:56;;;;;;;;;;;;;;;23.62;57.01;100118.11;1751514;79;20282;-81
2022/07/12 06:52:04;;;;;;;;;;;;;;;23.68;57.01;100117.06;1764031;80;20223;-82
2022/07/12 06:55:09;;;;;;;;;;;;;;;23.81;58.70;100125.55;1754204;81;20202;-81
2022/07/12 06:58:13;;;;;;;;;;;;;;;23.91;56.27;100130.36;1746204;81;20233;-81
2022/07/12 07:01:18;;;;;;;;;;;;;;;23.95;55.67;100129.55;1749115;80;20215;-82
2022/07/12 07:04:24;;;;;;;;;;;;;;;24.07;55.16;100129.33;1741207;82;20288;-81
2022/07/12 07:07:28;;;;;;;;;;;;;;;24.18;54.96;100128.30;1747146;80;20245;-80
2022/07/12 07:10:34;;;;;;;;;;;;;;;24.23;52.38;100128.33;1706405;82;20263;-81
2022/07/12 07:13:39;;;;;;;;;;;;;;;24.25;51.80;100127.21;1741725;80;20643;-81
2022/07/12 07:16:39;;;;;;;;;;;;;;;24.33;51.15;100135.09;1732266;81;20201;-81
2022/07/12 07:19:46;;;;;;;;;;;;;;;24.43;49.82;100129.58;1755105;79;20735;-81
2022/07/12 07:22:51;;;;;;;;;;;;;;;24.47;49.40;100127.92;1755596;79;20255;-81
2022/07/12 07:25:56;;;;;;;;;;;;;;;24.56;47.23;100131.01;1749458;80;20237;-81
2022/07/12 07:32:28;;;;;;;;;;;;;;;24.71;45.42;100130.53;1742663;80;20264;-82
2022/07/12 07:35:31;;;;;;;;;;;;;;;24.72;46.12;100131.37;1738348;80;20245;-81
2022/07/12 07:38:35;;;;;;;;;;;;;;;24.72;45.51;100131.37;1737013;80;20784;-80
2022/07/12 07:41:39;;;;;;;;;;;;;;;24.65;46.21;100126.58;1759891;81;20235;-81
2022/07/12 07:44:44;;;;;;;;;;;;;;;24.72;47.38;100135.00;1758043;80;20229;-82
2022/07/12 07:47:53;;;;;;;;;;;;;;;24.76;46.96;100132.50;1723872;80;20229;-81
2022/07/12 07:50:59;;;;;;;;;;;;;;;24.71;46.63;100126.34;1743463;80;20978;-82
2022/07/12 07:54:03;;;;;;;;;;;;;;;24.61;46.68;100128.27;1753823;80;20224;-81
2022/07/12 07:57:07;;;;;;;;;;;;;;;24.64;46.62;100129.09;1695895;82;63068;-82
2022/07/12 08:00:11;;;;;;;;;;;;;;;24.71;46.75;100130.53;1721651;81;20223;-82
2022/07/12 08:03:16;;;;;;;;;;;;;;;24.79;46.01;100131.09;1718929;83;20738;-82
2022/07/12 08:06:20;;;;;;;;;;;;;;;24.97;46.46;100137.59;1762839;80;20183;-83
2022/07/12 08:09:25;;;;;;;;;;;;;;;25.10;46.26;100134.86;1762174;80;20227;-82
2022/07/12 08:12:30;;;;;;;;;;;;;;;25.19;47.07;100141.59;1741779;81;20203;-81
2022/07/12 08:15:36;;;;;;;;;;;;;;;25.41;45.72;100142.77;1754883;80;20203;-82
2022/07/12 08:18:41;;;;;;;;;;;;;;;25.58;45.01;100144.70;1764700;79;20216;-83
2022/07/12 08:21:46;;;;;;;;;;;;;;;25.67;45.13;100148.63;1768729;79;20854;-83
2022/07/12 08:24:50;;;;;;;;;;;;;;;25.76;44.54;100146.71;1763785;79;20207;-83
2022/07/12 08:27:54;;;;;;;;;;;;;;;25.83;44.79;100155.66;1768170;79;20599;-82
2022/07/12 08:30:57;;;;;;;;;;;;;;;25.92;45.15;100153.97;1762761;80;20231;-80
2022/07/12 08:34:03;;;;;;;;;;;;;;;25.96;43.59;100157.33;1752767;79;20231;-79
2022/07/12 08:37:07;;;;;;;;;;;;;;;26.01;43.52;100152.27;1763827;79;20195;-80
2022/07/12 08:40:14;;;;;;;;;;;;;;;26.08;43.69;100163.22;1784500;79;20231;-81
2022/07/12 08:43:13;;;;;;;;;;;;;;;26.16;41.52;100152.27;1767354;79;20619;-82
2022/07/12 08:46:14;;;;;;;;;;;;;;;26.23;42.43;100155.61;1764337;79;20423;-82
2022/07/12 08:49:03;;;;;;;;;;;;;;;26.24;43.38;100154.48;1765137;79;20222;-82
2022/07/12 08:51:55;;;;;;;;;;;;;;;26.17;42.64;100152.55;1753463;79;20203;-81
2022/07/12 08:55:00;;;;;;;;;;;;;;;26.07;42.35;100159.58;1759724;80;20160;-82
2022/07/12 08:58:07;;;;;;;;;;;;;;;26.07;42.93;100159.58;1751422;79;20258;-81
2022/07/12 09:01:12;;;;;;;;;;;;;;;25.95;42.90;100155.66;1764020;79;20480;-81
2022/07/12 09:04:27;;;;;;;;;;;;;;;25.80;43.85;100156.23;1773927;79;20458;-82
2022/07/12 09:07:32;;;;;;;;;;;;;;;25.74;43.34;100153.97;1758248;79;20650;-82
2022/07/12 09:10:36;;;;;;;;;;;;;;;25.82;43.80;100153.98;1759416;79;20236;-82
2022/07/12 09:13:59;;;;;;;;;;;;;;;25.96;42.69;100163.50;1754783;81;20251;-81
2022/07/12 09:17:15;;;;;;;;;;;;;;;25.95;41.35;100162.66;1760215;81;20674;-82
2022/07/12 09:20:18;;;;;;;;;;;;;;;25.91;42.09;100164.34;1696549;84;20232;-82
2022/07/12 09:23:22;;;;;;;;;;;;;;;25.84;41.23;100163.80;1687662;84;20692;-82
2022/07/12 09:26:26;;;;;;;;;;;;;;;25.83;42.00;100156.52;1709472;84;20204;-81
2022/07/12 09:29:31;;;;;;;;;;;;;;;25.86;40.62;100167.15;1719091;82;20182;-82
2022/07/12 09:36:10;;;;;;;;;;;;;;;25.70;41.30;100164.05;1682215;83;20216;-81
2022/07/12 09:39:14;;;;;;;;;;;;;;;25.72;40.49;100159.83;1676917;85;20212;-82
2022/07/12 09:42:19;;;;;;;;;;;;;;;25.82;41.73;100159.59;1694374;83;20165;-81
2022/07/12 09:45:24;;;;;;;;;;;;;;;26.01;41.53;100156.48;1673012;84;20208;-82
2022/07/12 09:48:28;;;;;;;;;;;;;;;26.06;40.55;100152.27;1691178;83;20571;-82
2022/07/12 09:51:32;;;;;;;;;;;;;;;26.04;39.17;100151.72;1682642;83;20697;-82
2022/07/12 09:54:32;;;;;;;;;;;;;;;26.07;39.13;100148.36;1680576;84;20192;-82
2022/07/12 09:57:38;;;;;;;;;;;;;;;26.01;39.88;100156.48;1680788;85;20682;-81
2022/07/12 10:00:51;;;;;;;;;;;;;;;26.03;40.15;100157.05;1696244;83;20253;-82
2022/07/12 10:03:56;;;;;;;;;;;;;;;26.14;40.08;100148.89;1725561;83;20229;-82
2022/07/12 10:06:59;;;;;;;;;;;;;;;26.25;40.27;100149.70;1725567;82;20202;-81
2022/07/12 10:10:04;;;;;;;;;;;;;;;26.35;39.30;100152.51;1719183;82;20255;-81
2022/07/12 10:13:10;;;;;;;;;;;;;;;26.25;38.36;100150.58;1734514;82;20230;-80
2022/07/12 10:16:16;;;;;;;;;;;;;;;26.22;39.04;100139.92;1715017;81;20188;-81
2022/07/12 10:19:36;;;;;;;;;;;;;;;26.19;38.31;100157.86;1699304;81;20226;-80
2022/07/12 10:22:41;;;;;;;;;;;;;;;26.25;37.92;100153.38;1723824;82;20514;-82
2022/07/12 10:25:44;;;;;;;;;;;;;;;26.36;38.51;100149.14;1721639;81;20229;-81
2022/07/12 10:29:09;;;;;;;;;;;;;;;26.22;37.25;100149.73;1677216;85;20214;-82
2022/07/12 10:32:26;;;;;;;;;;;;;;;25.97;36.97;100150.62;1641591;84;20213;-82
2022/07/12 10:35:32;;;;;;;;;;;;;;;25.82;37.77;100149.22;1677750;85;20209;-82
2022/07/12 10:38:37;;;;;;;;;;;;;;;25.82;37.64;100144.17;1676874;85;20214;-79
2022/07/12 10:41:41;;;;;;;;;;;;;;;25.81;37.31;100141.10;1668635;85;20199;-79
2022/07/12 10:44:45;;;;;;;;;;;;;;;25.75;39.18;100145.84;1686268;84;20685;-79
2022/07/12 10:48:08;;;;;;;;;;;;;;;25.87;39.09;100145.01;1682446;84;20208;-80
2022/07/12 10:51:21;;;;;;;;;;;;;;;26.06;38.09;100148.06;1725869;82;20237;-79
2022/07/12 10:54:27;;;;;;;;;;;;;;;26.20;37.87;100146.35;1729254;82;20223;-79
2022/07/12 10:57:50;;;;;;;;;;;;;;;26.34;36.96;100145.77;1737914;81;20409;-81
2022/07/12 11:00:56;;;;;;;;;;;;;;;26.38;36.54;100142.10;1770330;81;20198;-81
2022/07/12 11:04:06;;;;;;;;;;;;;;;26.45;36.89;100134.84;1748136;81;20612;-81
2022/07/12 11:07:11;;;;;;;;;;;;;;;26.60;37.25;100133.38;1770375;79;20219;-82
2022/07/12 11:10:19;;;;;;;;;;;;;;;26.79;36.64;100129.93;1770766;81;20195;-81
2022/07/12 11:13:41;;;;;;;;;;;;;;;26.97;35.35;100136.28;1770570;81;20195;-81
2022/07/12 11:16:56;;;;;;;;;;;;;;;26.99;34.93;100137.66;1772339;81;20192;-81
2022/07/12 11:19:59;;;;;;;;;;;;;;;26.91;34.83;100137.42;1734039;82;20669;-80
2022/07/12 11:23:03;;;;;;;;;;;;;;;26.68;35.67;100129.98;1742113;82;20606;-81
2022/07/12 11:26:08;;;;;;;;;;;;;;;26.58;36.91;100138.41;1742849;82;20201;-81
2022/07/12 11:29:12;;;;;;;;;;;;;;;26.67;36.23;100133.89;1748147;80;20464;-81
2022/07/12 11:32:19;;;;;;;;;;;;;;;26.76;36.11;100134.97;1773648;81;20210;-81
2022/07/12 11:35:30;;;;;;;;;;;;;;;26.82;35.97;100129.33;1774008;80;20241;-81
2022/07/12 11:38:34;;;;;;;;;;;;;;;26.93;36.05;100126.77;1772358;81;20489;-81
2022/07/12 11:41:39;;;;;;;;;;;;;;;27.03;35.81;100140.73;1772970;81;20195;-81
2022/07/12 11:44:55;;;;;;;;;;;;;;;26.95;34.16;100137.12;1770145;79;20458;-81
2022/07/12 11:47:59;;;;;;;;;;;;;;;26.79;33.66;100125.72;1743711;82;20201;-81
2022/07/12 11:51:03;;;;;;;;;;;;;;;26.69;34.76;100128.84;1766354;79;20208;-81
2022/07/12 11:54:08;;;;;;;;;;;;;;;26.68;36.42;100126.34;1799291;79;20236;-82
2022/07/12 11:57:15;;;;;;;;;;;;;;;26.78;34.89;100129.66;1799090;79;20197;-80
2022/07/12 12:00:27;;;;;;;;;;;;;;;26.89;34.71;100115.84;1756917;79;20183;-81
2022/07/12 12:03:32;;;;;;;;;;;;;;;26.97;35.56;100123.09;1731114;83;20501;-81
2022/07/12 12:06:37;;;;;;;;;;;;;;;27.01;35.06;100117.75;1731297;83;20209;-81
2022/07/12 12:10:01;;;;;;;;;;;;;;;26.95;34.72;100115.51;1731178;83;20669;-81
2022/07/12 12:13:07;;;;;;;;;;;;;;;26.73;34.63;100114.52;1730457;83;20162;-81
2022/07/12 12:16:12;;;;;;;;;;;;;;;26.56;35.77;100114.60;1731033;83;20194;-81
2022/07/12 12:19:19;;;;;;;;;;;;;;;26.58;34.06;100105.33;1730986;83;20217;-81
2022/07/12 12:22:41;;;;;;;;;;;;;;;26.63;34.91;100113.17;1730783;83;20181;-81
2022/07/12 12:25:48;;;;;;;;;;;;;;;26.65;35.04;100112.31;1730725;83;20241;-81
2022/07/12 12:39:25;;;;;;;;;;;;;;;26.82;34.49;100103.55;1949309;73;20183;-81
2022/07/12 12:42:32;;;;;;;;;;;;;;;26.84;34.75;100110.26;1884981;75;20203;-81
2022/07/12 12:45:37;;;;;;;;;;;;;;;26.87;34.98;100113.90;1853855;77;20206;-81
2022/07/12 12:48:41;;;;;;;;;;;;;;;26.85;35.45;100114.73;1848724;77;20204;-81
2022/07/12 12:52:05;;;;;;;;;;;;;;;26.81;35.54;100115.03;1844952;77;20477;-82
2022/07/12 12:55:11;;;;;;;;;;;;;;;26.78;35.86;100101.60;1823357;78;20626;-81
2022/07/12 12:58:14;;;;;;;;;;;;;;;26.70;36.36;100107.24;1823824;78;20583;-81
2022/07/12 13:01:19;;;;;;;;;;;;;;;26.65;34.73;100105.87;1831284;78;20193;-81
2022/07/12 13:04:22;;;;;;;;;;;;;;;26.56;34.21;100112.63;1839757;78;20197;-81
2022/07/12 13:07:27;;;;;;;;;;;;;;;26.46;34.56;100100.06;1830561;77;20197;-81
2022/07/12 13:10:34;;;;;;;;;;;;;;;26.36;34.94;100100.08;1831306;78;20194;-81
2022/07/12 13:13:39;;;;;;;;;;;;;;;26.21;34.92;100093.96;1831818;77;20201;-81
2022/07/12 13:16:44;;;;;;;;;;;;;;;26.09;35.75;100095.66;1831646;77;20169;-81
2022/07/12 13:19:48;;;;;;;;;;;;;;;26.12;35.82;100099.30;1831083;78;20225;-80
2022/07/12 13:22:54;;;;;;;;;;;;;;;26.12;35.31;100089.50;1831391;77;20213;-80
2022/07/12 13:26:00;;;;;;;;;;;;;;;26.11;36.07;100094.83;1831536;78;20213;-81
2022/07/12 13:29:06;;;;;;;;;;;;;;;26.12;35.83;100095.10;1834400;77;20182;-81
2022/07/12 13:32:10;;;;;;;;;;;;;;;26.14;35.16;100085.84;1864880;77;20191;-82
2022/07/12 13:35:17;;;;;;;;;;;;;;;26.12;35.05;100095.10;1865444;77;20223;-80
2022/07/12 13:38:21;;;;;;;;;;;;;;;26.12;34.93;100079.69;1863407;77;20175;-80
2022/07/12 13:41:26;;;;;;;;;;;;;;;26.16;34.90;100088.34;1862845;77;20669;-81
2022/07/12 13:44:31;;;;;;;;;;;;;;;26.15;34.10;100088.91;1862625;77;20195;-81
2022/07/12 13:47:36;;;;;;;;;;;;;;;26.07;34.04;100097.09;1861778;77;20219;-80
2022/07/12 13:50:40;;;;;;;;;;;;;;;25.99;34.45;100090.09;1862178;77;20682;-81
2022/07/12 13:53:47;;;;;;;;;;;;;;;25.93;35.38;100093.47;1861174;77;20164;-81
2022/07/12 13:56:53;;;;;;;;;;;;;;;25.89;35.42;100094.31;1862302;77;20195;-81
2022/07/12 13:59:58;;;;;;;;;;;;;;;25.84;35.54;100092.92;1862412;77;20459;-81
2022/07/12 14:03:04;;;;;;;;;;;;;;;25.71;34.99;100092.34;1861421;77;20227;-81
2022/07/12 14:06:08;;;;;;;;;;;;;;;25.54;34.67;100094.58;1860738;77;20176;-81
2022/07/12 14:09:12;;;;;;;;;;;;;;;25.38;35.40;100090.95;1860604;77;20215;-80
2022/07/12 14:12:18;;;;;;;;;;;;;;;25.27;35.65;100087.05;1861788;77;20188;-81
2022/07/12 14:15:37;;;;;;;;;;;;;;;25.15;35.98;100081.14;1862508;77;20183;-81
2022/07/12 14:18:41;;;;;;;;;;;;;;;25.10;35.81;100081.70;1860812;77;20208;-81
2022/07/12 14:21:46;;;;;;;;;;;;;;;25.14;35.62;100079.47;1862086;77;20179;-82
2022/07/12 14:24:51;;;;;;;;;;;;;;;25.21;35.68;100081.41;1860910;77;20196;-81
2022/07/12 14:27:56;;;;;;;;;;;;;;;25.28;35.39;100078.92;1861705;77;20216;-81
2022/07/12 14:31:00;;;;;;;;;;;;;;;25.38;35.46;100074.72;1862579;77;20192;-81
2022/07/12 14:34:05;;;;;;;;;;;;;;;25.52;35.99;100073.03;1862675;77;20227;-81
2022/07/12 14:37:08;;;;;;;;;;;;;;;25.67;35.68;100080.58;1862655;77;20594;-82
2022/07/12 14:40:13;;;;;;;;;;;;;;;25.72;34.83;100074.41;1860760;77;20192;-80
2022/07/12 14:43:17;;;;;;;;;;;;;;;25.75;34.91;100075.81;1862465;77;20180;-80
2022/07/12 14:46:21;;;;;;;;;;;;;;;25.71;34.76;100078.33;1862840;77;20218;-81
2022/07/12 14:49:28;;;;;;;;;;;;;;;25.68;34.60;100078.88;1862779;77;20192;-81
2022/07/12 14:52:33;;;;;;;;;;;;;;;25.65;34.78;100080.87;1862284;77;20507;-81
2022/07/12 14:55:37;;;;;;;;;;;;;;;25.57;34.42;100080.03;1862259;77;20591;-81
2022/07/12 14:58:42;;;;;;;;;;;;;;;25.52;34.49;100081.44;1860754;77;20199;-81
2022/07/12 15:01:47;;;;;;;;;;;;;;;25.49;34.21;100084.22;1862086;77;20179;-81
2022/07/12 15:04:52;;;;;;;;;;;;;;;25.51;33.83;100084.52;1862572;77;20623;-81
2022/07/12 15:07:58;;;;;;;;;;;;;;;25.54;34.12;100085.34;1861591;77;20183;-81
2022/07/12 15:11:04;;;;;;;;;;;;;;;25.53;34.02;100085.07;1860841;77;20651;-81
2022/07/12 15:14:10;;;;;;;;;;;;;;;25.52;33.87;100082.00;1862485;77;20187;-81
2022/07/12 15:17:16;;;;;;;;;;;;;;;25.45;33.96;100083.12;1862603;77;20214;-80
2022/07/12 15:20:21;;;;;;;;;;;;;;;25.37;34.15;100084.24;1862573;77;20667;-81
2022/07/12 15:23:27;;;;;;;;;;;;;;;25.30;34.19;100089.27;1862520;77;20413;-81
2022/07/12 15:26:31;;;;;;;;;;;;;;;25.24;34.68;100080.03;1862403;77;20627;-81
2022/07/12 15:29:29;;;;;;;;;;;;;;;25.24;35.23;100077.23;1850149;77;20198;-80
2022/07/12 15:32:35;;;;;;;;;;;;;;;25.21;34.39;100077.78;1821747;79;20199;-81
2022/07/12 15:35:39;;;;;;;;;;;;;;;25.16;34.38;100084.77;1822296;79;20175;-80
2022/07/12 15:38:44;;;;;;;;;;;;;;;25.12;34.08;100085.05;1820899;79;20167;-81
2022/07/12 15:41:48;;;;;;;;;;;;;;;25.09;34.40;100087.86;1820930;78;20225;-81
2022/07/12 15:44:54;;;;;;;;;;;;;;;25.05;34.51;100087.26;1839829;77;20601;-80
2022/07/12 15:47:59;;;;;;;;;;;;;;;24.98;34.46;100085.58;1859722;76;20574;-80
2022/07/12 15:51:03;;;;;;;;;;;;;;;24.89;34.75;100078.84;1858670;77;20185;-81
2022/07/12 15:54:08;;;;;;;;;;;;;;;24.84;34.91;100080.77;1860168;77;20193;-81
2022/07/12 15:57:12;;;;;;;;;;;;;;;24.76;34.71;100086.92;1860874;77;20203;-80
2022/07/12 16:00:17;;;;;;;;;;;;;;;24.68;35.30;100085.48;1834232;77;20177;-80
2022/07/12 16:03:22;;;;;;;;;;;;;;;24.59;36.10;100080.98;1820246;77;20203;-82
2022/07/12 16:06:28;;;;;;;;;;;;;;;24.52;36.35;100077.62;1827697;78;20194;-81
2022/07/12 16:09:36;;;;;;;;;;;;;;;24.45;36.72;100076.45;1832667;77;21060;-82
2022/07/12 16:12:42;;;;;;;;;;;;;;;24.38;37.29;100075.89;1820908;77;20582;-80
2022/07/12 16:15:48;;;;;;;;;;;;;;;24.26;38.06;100069.64;1842786;77;20229;-80
2022/07/12 16:18:52;;;;;;;;;;;;;;;24.14;38.21;100072.67;1844751;77;20229;-80
2022/07/12 16:21:57;;;;;;;;;;;;;;;24.06;39.04;100070.39;1835735;77;20237;-80
2022/07/12 16:25:00;;;;;;;;;;;;;;;23.94;39.77;100077.56;1833814;77;20178;-80
2022/07/12 16:28:04;;;;;;;;;;;;;;;23.82;40.11;100078.91;1848639;76;20606;-80
2022/07/12 16:31:09;;;;;;;;;;;;;;;23.67;40.99;100074.91;1820768;77;20230;-80
2022/07/12 16:34:14;;;;;;;;;;;;;;;23.55;41.80;100078.40;1819866;79;20222;-80
2022/07/12 16:37:18;;;;;;;;;;;;;;;23.42;42.23;100076.05;1819945;79;20606;-80
2022/07/12 16:40:24;;;;;;;;;;;;;;;23.26;42.98;100077.05;1819554;77;20182;-80
2022/07/12 16:43:29;;;;;;;;;;;;;;;23.16;43.34;100074.45;1822552;78;20206;-81
2022/07/12 16:46:34;;;;;;;;;;;;;;;23.06;44.07;100073.52;1824049;78;20253;-81
2022/07/12 16:49:38;;;;;;;;;;;;;;;22.96;44.31;100065.91;1828631;77;20188;-80
2022/07/12 16:52:43;;;;;;;;;;;;;;;22.89;44.61;100075.02;1829755;78;20175;-81
2022/07/12 16:55:49;;;;;;;;;;;;;;;22.81;44.95;100076.29;1851113;77;20219;-80
2022/07/12 16:58:53;;;;;;;;;;;;;;;22.75;45.38;100073.72;1872296;76;20176;-81
2022/07/12 17:01:57;;;;;;;;;;;;;;;22.65;46.18;100078.63;1861237;76;20173;-80
2022/07/12 17:04:55;;;;;;;;;;;;;;;22.58;46.43;100075.19;1859954;77;20250;-81
2022/07/12 17:07:47;;;;;;;;;;;;;;;22.50;46.16;100072.89;1861152;75;20859;-81
2022/07/12 17:10:33;;;;;;;;;;;;;;;22.43;46.44;100076.70;1845657;77;20211;-82
2022/07/12 17:13:37;;;;;;;;;;;;;;;22.37;47.03;100081.09;1862085;77;20187;-80
2022/07/12 17:16:42;;;;;;;;;;;;;;;22.29;47.87;100075.95;1862859;77;20203;-80
2022/07/12 17:19:47;;;;;;;;;;;;;;;22.21;48.96;100087.02;1863977;77;20179;-81
2022/07/12 17:22:52;;;;;;;;;;;;;;;22.11;50.72;100082.16;1865743;75;20196;-81
2022/07/12 17:25:57;;;;;;;;;;;;;;;22.00;51.14;100083.06;1864442;77;20191;-81
2022/07/12 17:29:02;;;;;;;;;;;;;;;21.90;51.64;100078.20;1861805;77;20144;-80
2022/07/12 17:32:06;;;;;;;;;;;;;;;21.83;52.81;100080.86;1847186;77;20193;-80
2022/07/12 17:35:11;;;;;;;;;;;;;;;21.72;53.95;100086.83;1828751;77;20618;-81
2022/07/12 17:38:15;;;;;;;;;;;;;;;21.62;55.42;100093.08;1831272;77;20197;-81
2022/07/12 17:41:21;;;;;;;;;;;;;;;21.52;54.45;100094.32;1853848;77;20648;-81
2022/07/12 17:44:25;;;;;;;;;;;;;;;21.44;53.42;100097.52;1860951;77;20209;-80
2022/07/12 17:47:29;;;;;;;;;;;;;;;21.35;52.97;100099.03;1864632;75;20191;-82
2022/07/12 17:50:32;;;;;;;;;;;;;;;21.25;52.92;100098.83;1846993;77;20205;-81
2022/07/12 17:53:36;;;;;;;;;;;;;;;21.15;53.40;100104.50;1852400;77;20618;-80
2022/07/12 17:56:40;;;;;;;;;;;;;;;21.06;53.86;100104.62;1864538;75;20200;-80
2022/07/12 17:59:46;;;;;;;;;;;;;;;20.95;54.21;100105.53;1865342;77;20214;-81
2022/07/12 18:02:45;;;;;;;;;;;;;;;20.82;54.37;100110.84;1864818;75;20192;-80
2022/07/12 18:05:51;;;;;;;;;;;;;;;20.73;54.27;100124.00;1865308;77;20219;-81
2022/07/12 18:08:57;;;;;;;;;;;;;;;20.61;54.50;100116.56;1863872;75;20199;-81
2022/07/12 18:15:25;;;;;;;;;;;;;;;20.43;54.61;100126.42;1852537;76;20213;-81
2022/07/12 18:18:29;;;;;;;;;;;;;;;20.31;54.38;100120.88;1847362;77;20182;-81
2022/07/12 18:21:34;;;;;;;;;;;;;;;20.24;53.88;100130.45;1848337;77;20426;-81
2022/07/12 18:24:39;;;;;;;;;;;;;;;20.18;53.17;100129.47;1848961;77;20703;-80
2022/07/12 18:27:44;;;;;;;;;;;;;;;20.13;52.36;100132.14;1848990;77;20198;-80
2022/07/12 18:30:43;;;;;;;;;;;;;;;20.07;51.58;100131.73;1848525;77;20194;-80
2022/07/12 18:33:38;;;;;;;;;;;;;;;20.01;51.20;100136.88;1847277;77;20221;-80
2022/07/12 18:36:24;;;;;;;;;;;;;;;19.97;51.31;100132.89;1848852;77;20205;-80
2022/07/12 18:39:29;;;;;;;;;;;;;;;19.92;51.43;100130.84;1849193;77;20597;-80
2022/07/12 18:42:34;;;;;;;;;;;;;;;19.86;51.50;100134.05;1848732;77;20975;-80
2022/07/12 18:45:39;;;;;;;;;;;;;;;19.82;51.92;100141.70;1831946;77;20249;-81
2022/07/12 18:48:44;;;;;;;;;;;;;;;19.76;52.42;100139.36;1823598;78;20222;-81
2022/07/12 18:51:49;;;;;;;;;;;;;;;19.68;52.33;100134.16;1823435;78;20219;-81
2022/07/12 18:54:55;;;;;;;;;;;;;;;19.61;53.03;100143.97;1824987;78;20198;-81
2022/07/12 18:57:59;;;;;;;;;;;;;;;19.52;53.19;100137.59;1825907;78;20910;-81
2022/07/12 19:01:04;;;;;;;;;;;;;;;19.45;53.29;100138.27;1857037;77;20195;-80
2022/07/12 19:04:09;;;;;;;;;;;;;;;19.36;54.15;100143.30;1863459;77;20880;-80
2022/07/12 19:07:14;;;;;;;;;;;;;;;19.26;54.71;100142.50;1862646;77;20203;-80
2022/07/12 19:10:19;;;;;;;;;;;;;;;19.20;54.71;100149.00;1861568;76;20903;-80
2022/07/12 19:13:24;;;;;;;;;;;;;;;19.13;56.08;100142.70;1862699;77;20743;-81
2022/07/12 19:16:30;;;;;;;;;;;;;;;19.05;55.44;100141.64;1863996;77;20164;-80
2022/07/12 19:19:33;;;;;;;;;;;;;;;19.00;55.15;100143.73;1864292;77;20180;-80
2022/07/12 19:22:38;;;;;;;;;;;;;;;18.94;55.85;100141.91;1863031;77;20458;-80
2022/07/12 19:25:44;;;;;;;;;;;;;;;18.88;56.36;100138.70;1863686;77;20207;-81
2022/07/12 19:28:48;;;;;;;;;;;;;;;18.82;56.37;100139.11;1863613;77;20184;-80
2022/07/12 19:31:53;;;;;;;;;;;;;;;18.76;58.43;100139.19;1865204;77;20714;-80
2022/07/12 19:34:58;;;;;;;;;;;;;;;18.71;58.13;100140.42;1865741;77;20618;-80
2022/07/12 19:38:02;;;;;;;;;;;;;;;18.63;57.17;100138.27;1864510;77;20584;-81
2022/07/12 19:41:07;;;;;;;;;;;;;;;18.57;58.49;100132.80;1846158;77;20585;-79
2022/07/12 19:44:12;;;;;;;;;;;;;;;18.50;58.81;100134.82;1829728;77;20209;-80
2022/07/12 19:47:16;;;;;;;;;;;;;;;18.45;58.45;100141.06;1824534;78;20633;-81
2022/07/12 19:50:21;;;;;;;;;;;;;;;18.39;57.60;100139.19;1825257;78;20181;-80
2022/07/12 19:53:23;;;;;;;;;;;;;;;18.35;58.05;100143.53;1825134;78;20589;-80